Terminal Aerodrome Forecast
Issued by NWS Portland, ME

Home | Current Version | Previous Version | Text Only | Print | Product List | Glossary On
Versions: 1 2 3 4 5 6 7 8 9 10 11 12 13 14 15 16 17 18 19 20
000
FTUS41 KGYX 120858 AAA
TAFCON
TAF AMD
KCON 120858Z 1209/1306 00000KT 4SM -SN OVC050
      TEMPO 1210/1214 1SM -SN OVC007
     FM121500 10005KT 1/2SM SN OVC008
     FM121800 10005KT 1/2SM RASN OVC008
     FM122100 09005KT 3SM RA BR OVC003=

USA.gov is the U.S. government's official web portal to all federal, state and local government web resources and services.